createdAt,value
2023-04-09T00:00:28.650Z,8.28
2023-04-09T00:01:07.828Z,8.29
2023-04-09T00:01:39.363Z,8.29
2023-04-09T00:02:11.085Z,8.27
2023-04-09T00:02:42.812Z,8.32
2023-04-09T00:03:14.421Z,8.44
2023-04-09T00:03:46.230Z,8.55
2023-04-09T00:04:17.967Z,8.32
2023-04-09T00:04:49.578Z,8.32
2023-04-09T00:05:21.433Z,8.27
2023-04-09T00:05:53.816Z,8.32
2023-04-09T00:06:27.277Z,8.38
2023-04-09T00:07:01.465Z,8.26
2023-04-09T00:07:32.971Z,8.22
2023-04-09T00:08:04.622Z,8.21
2023-04-09T00:08:36.342Z,8.21
2023-04-09T00:09:08.743Z,8.28
2023-04-09T00:09:40.467Z,8.26
2023-04-09T00:10:12.084Z,8.25
2023-04-09T00:10:43.687Z,8.19
2023-04-09T00:11:15.295Z,8.23
2023-04-09T00:11:46.834Z,8.21
2023-04-09T00:12:18.389Z,8.19
2023-04-09T00:12:49.927Z,8.18
2023-04-09T00:13:31.919Z,8.19
2023-04-09T00:14:09.825Z,8.22
2023-04-09T00:14:41.437Z,8.30
2023-04-09T00:15:20.563Z,8.53
2023-04-09T00:15:59.636Z,8.66
2023-04-09T00:16:31.305Z,8.72
2023-04-09T00:17:02.918Z,8.55
2023-04-09T00:17:34.542Z,8.50
2023-04-09T00:18:06.396Z,8.38
2023-04-09T00:18:37.938Z,8.47
2023-04-09T00:19:09.466Z,8.67
2023-04-09T00:19:41.165Z,8.69
2023-04-09T00:20:12.758Z,8.69
2023-04-09T00:20:44.363Z,8.67
2023-04-09T00:21:20.562Z,8.66
2023-04-09T00:21:52.584Z,8.66
2023-04-09T00:22:24.087Z,8.68
2023-04-09T00:22:56.455Z,8.67
2023-04-09T00:23:29.164Z,8.65
2023-04-09T00:24:01.180Z,8.68
2023-04-09T00:24:32.749Z,8.69
2023-04-09T00:25:04.630Z,8.68
2023-04-09T00:25:36.285Z,8.69
2023-04-09T00:26:08.166Z,8.64
2023-04-09T00:26:39.777Z,8.63
2023-04-09T00:27:11.315Z,8.64
2023-04-09T00:27:42.879Z,8.64
2023-04-09T00:28:14.414Z,8.59
2023-04-09T00:28:46.059Z,8.61
2023-04-09T00:29:17.644Z,8.61
2023-04-09T00:29:49.165Z,8.57
2023-04-09T00:30:20.854Z,8.55
2023-04-09T00:30:52.564Z,8.54
2023-04-09T00:31:24.160Z,8.55
2023-04-09T00:31:56.011Z,8.55
2023-04-09T00:32:27.655Z,8.55
2023-04-09T00:32:59.295Z,8.47
2023-04-09T00:33:31.057Z,8.35
2023-04-09T00:34:02.682Z,8.38
2023-04-09T00:34:34.338Z,8.42
2023-04-09T00:35:06.451Z,8.39
2023-04-09T00:35:38.153Z,8.48
2023-04-09T00:36:09.929Z,8.50
2023-04-09T00:36:41.474Z,8.52
2023-04-09T00:37:13.682Z,8.52
2023-04-09T00:37:45.361Z,8.51
2023-04-09T00:38:17.058Z,8.55
2023-04-09T00:38:51.124Z,8.54
2023-04-09T00:39:23.856Z,8.51
2023-04-09T00:39:55.698Z,8.58
2023-04-09T00:40:27.306Z,8.57
2023-04-09T00:40:58.819Z,8.59
2023-04-09T00:41:30.324Z,8.62
2023-04-09T00:42:05.351Z,8.45
2023-04-09T00:42:37.562Z,8.55
2023-04-09T00:43:09.500Z,8.57
2023-04-09T00:43:40.998Z,8.54
2023-04-09T00:44:12.493Z,8.50
2023-04-09T00:44:44.058Z,8.52
2023-04-09T00:45:15.733Z,8.58
2023-04-09T00:45:47.598Z,8.58
2023-04-09T00:46:19.304Z,8.49
2023-04-09T00:46:51.581Z,8.53
2023-04-09T00:47:23.484Z,8.53
2023-04-09T00:47:55.631Z,8.56
2023-04-09T00:48:27.799Z,8.55
2023-04-09T00:49:00.867Z,8.47
2023-04-09T00:49:32.412Z,8.48
2023-04-09T00:50:04.230Z,8.51
2023-04-09T00:50:36.432Z,8.48
2023-04-09T00:51:08.813Z,8.48
2023-04-09T00:51:41.040Z,8.47
2023-04-09T00:52:12.995Z,8.47
2023-04-09T00:52:44.825Z,8.47
2023-04-09T00:53:16.412Z,8.46
2023-04-09T00:53:48.117Z,8.44
2023-04-09T00:54:19.844Z,8.40
2023-04-09T00:54:52.257Z,8.41
2023-04-09T00:55:23.961Z,8.40
2023-04-09T00:55:55.627Z,8.34
2023-04-09T00:56:27.225Z,8.37
2023-04-09T00:56:59.587Z,8.36
2023-04-09T00:57:31.161Z,8.36
2023-04-09T00:58:03.188Z,8.37
2023-04-09T00:58:34.736Z,8.36
2023-04-09T00:59:06.331Z,8.38
2023-04-09T00:59:38.628Z,8.38
2023-04-09T01:00:13.069Z,8.39
2023-04-09T01:00:44.803Z,8.35
2023-04-09T01:01:16.651Z,8.34
2023-04-09T01:01:48.195Z,8.32
2023-04-09T01:02:19.856Z,8.36
2023-04-09T01:02:54.380Z,8.27
2023-04-09T01:03:26.171Z,8.34
2023-04-09T01:03:57.810Z,8.40
2023-04-09T01:04:29.365Z,8.36
2023-04-09T01:05:01.153Z,8.34
2023-04-09T01:06:23.182Z,8.38
2023-04-09T01:07:14.561Z,8.36
2023-04-09T01:07:46.546Z,8.35
2023-04-09T01:08:49.024Z,8.35
2023-04-09T01:09:56.557Z,8.27
2023-04-09T01:10:41.426Z,8.26
2023-04-09T01:11:22.071Z,8.26
2023-04-09T01:12:16.610Z,8.28
2023-04-09T01:12:58.311Z,8.32
2023-04-09T01:13:40.979Z,8.30
2023-04-09T01:14:21.704Z,8.32
2023-04-09T01:14:57.938Z,8.26
2023-04-09T01:15:31.532Z,8.25
2023-04-09T01:16:03.899Z,8.23
2023-04-09T01:16:37.962Z,8.19
2023-04-09T01:17:24.971Z,8.18
2023-04-09T01:18:06.420Z,8.16
2023-04-09T01:18:59.886Z,8.15
2023-04-09T01:19:56.336Z,8.03
2023-04-09T01:20:41.537Z,8.08
2023-04-09T01:21:16.646Z,8.06
2023-04-09T01:21:48.728Z,8.00
2023-04-09T01:22:38.094Z,8.05
2023-04-09T01:23:10.491Z,8.13
2023-04-09T01:23:53.126Z,8.09
2023-04-09T01:24:53.892Z,8.14
2023-04-09T01:25:40.482Z,8.08
2023-04-09T01:26:46.264Z,8.30
2023-04-09T01:27:18.711Z,8.26
2023-04-09T01:28:16.862Z,8.11
2023-04-09T01:28:54.875Z,8.16
2023-04-09T01:29:36.159Z,8.16
2023-04-09T01:30:07.701Z,8.26
2023-04-09T01:30:40.873Z,8.30
2023-04-09T01:31:20.558Z,8.25
2023-04-09T01:31:53.090Z,8.20
2023-04-09T01:32:25.696Z,8.40
2023-04-09T01:32:57.904Z,8.49
2023-04-09T01:33:32.943Z,8.46
2023-04-09T01:34:06.626Z,8.46
2023-04-09T01:34:38.960Z,8.49
2023-04-09T01:35:10.926Z,8.45
2023-04-09T01:35:44.128Z,8.30
2023-04-09T01:36:19.061Z,8.15
2023-04-09T01:36:54.023Z,8.23
2023-04-09T01:37:26.362Z,8.07
2023-04-09T01:37:58.496Z,8.14
2023-04-09T01:38:30.138Z,8.16
2023-04-09T01:39:02.334Z,8.15
2023-04-09T01:39:34.112Z,8.19
2023-04-09T01:40:07.271Z,8.08
2023-04-09T01:40:38.873Z,8.13
2023-04-09T01:41:15.061Z,8.04
2023-04-09T01:41:46.994Z,8.08
2023-04-09T01:42:18.572Z,8.06
2023-04-09T01:42:52.326Z,8.13
2023-04-09T01:43:24.702Z,8.13
2023-04-09T01:43:56.719Z,8.08
2023-04-09T01:44:28.993Z,8.13
2023-04-09T01:45:00.798Z,8.12
2023-04-09T01:45:32.834Z,8.12
2023-04-09T01:46:04.716Z,8.08
2023-04-09T01:46:36.834Z,8.01
2023-04-09T01:47:09.195Z,8.04
2023-04-09T01:47:41.398Z,8.06
2023-04-09T01:48:13.827Z,8.07
2023-04-09T01:48:46.447Z,8.05
2023-04-09T01:49:18.797Z,8.03
2023-04-09T01:49:50.744Z,8.11
2023-04-09T01:50:22.487Z,8.11
2023-04-09T01:50:54.444Z,8.34
2023-04-09T01:51:27.361Z,8.42
2023-04-09T01:51:59.066Z,8.46
2023-04-09T01:52:30.717Z,8.31
2023-04-09T01:53:02.741Z,8.25
2023-04-09T01:53:34.243Z,8.22
2023-04-09T01:54:05.756Z,8.27
2023-04-09T01:54:37.374Z,8.25
2023-04-09T01:55:09.094Z,8.25
2023-04-09T01:55:40.774Z,8.37
2023-04-09T01:56:12.505Z,8.49
2023-04-09T01:56:45.962Z,8.55
2023-04-09T01:57:17.611Z,8.54
2023-04-09T01:57:49.129Z,8.55
2023-04-09T01:58:20.669Z,8.52
2023-04-09T01:58:52.695Z,8.56
2023-04-09T01:59:24.638Z,8.38
2023-04-09T01:59:56.301Z,8.38
2023-04-09T02:00:36.642Z,8.51
2023-04-09T02:01:25.011Z,8.49
2023-04-09T02:02:09.590Z,8.45
2023-04-09T02:02:48.128Z,8.43
2023-04-09T02:03:26.459Z,8.46
2023-04-09T02:04:01.274Z,8.41
2023-04-09T02:04:34.362Z,8.34
2023-04-09T02:05:08.144Z,8.33
2023-04-09T02:05:45.437Z,8.29
2023-04-09T02:06:39.826Z,8.30
2023-04-09T02:07:18.819Z,8.31
2023-04-09T02:07:55.030Z,8.30
2023-04-09T02:08:29.153Z,8.23
2023-04-09T02:09:01.899Z,8.24
2023-04-09T02:09:35.827Z,8.13
2023-04-09T02:10:10.442Z,8.11
2023-04-09T02:10:43.210Z,8.20
2023-04-09T02:11:16.118Z,8.10
2023-04-09T02:11:49.142Z,8.03
2023-04-09T02:12:21.086Z,8.03
2023-04-09T02:12:53.518Z,8.02
2023-04-09T02:13:27.132Z,8.05
2023-04-09T02:14:01.583Z,8.07
2023-04-09T02:14:33.759Z,8.10
2023-04-09T02:15:06.803Z,8.03
2023-04-09T02:15:39.187Z,8.01
2023-04-09T02:16:12.061Z,8.02
2023-04-09T02:16:43.799Z,8.03
2023-04-09T02:17:15.620Z,8.04
2023-04-09T02:17:47.464Z,8.01
2023-04-09T02:18:27.341Z,8.06
2023-04-09T02:19:01.312Z,8.06
2023-04-09T02:19:45.743Z,8.22
2023-04-09T02:20:18.956Z,8.21
2023-04-09T02:20:52.229Z,8.18
2023-04-09T02:21:24.238Z,8.09
2023-04-09T02:21:55.785Z,8.13
2023-04-09T02:22:27.301Z,8.21
2023-04-09T02:22:59.214Z,8.12
2023-04-09T02:23:33.213Z,8.10
2023-04-09T02:24:05.112Z,8.03
2023-04-09T02:24:36.762Z,8.01
2023-04-09T02:25:08.342Z,8.02
2023-04-09T02:25:40.168Z,8.05
2023-04-09T02:26:11.686Z,8.05
2023-04-09T02:26:43.328Z,8.13
2023-04-09T02:27:14.966Z,8.27
2023-04-09T02:27:46.543Z,8.34
2023-04-09T02:28:18.569Z,8.42
2023-04-09T02:28:50.977Z,8.21
2023-04-09T02:29:22.763Z,8.36
2023-04-09T02:29:54.557Z,8.24
2023-04-09T02:30:26.125Z,8.23
2023-04-09T02:30:57.683Z,8.15
2023-04-09T02:31:29.354Z,8.16
2023-04-09T02:32:01.051Z,8.19
2023-04-09T02:32:32.564Z,8.17
2023-04-09T02:33:04.104Z,8.14
2023-04-09T02:33:35.774Z,8.13
2023-04-09T02:34:07.360Z,8.39
2023-04-09T02:34:38.956Z,8.47
2023-04-09T02:35:10.547Z,8.37
2023-04-09T02:35:42.258Z,8.45
2023-04-09T02:36:13.933Z,8.32
2023-04-09T02:36:45.766Z,8.18
2023-04-09T02:37:18.289Z,8.34
2023-04-09T02:37:49.768Z,8.33
2023-04-09T02:38:21.311Z,8.42
2023-04-09T02:38:52.965Z,8.43
2023-04-09T02:39:24.734Z,8.45
2023-04-09T02:39:56.418Z,8.44
2023-04-09T02:40:33.814Z,8.21
2023-04-09T02:41:05.450Z,8.28
2023-04-09T02:41:36.956Z,8.25
2023-04-09T02:42:11.005Z,8.30
2023-04-09T02:42:42.532Z,8.32
2023-04-09T02:43:14.135Z,8.30
2023-04-09T02:43:45.641Z,8.23
2023-04-09T02:44:17.377Z,8.24
2023-04-09T02:44:49.054Z,8.27
2023-04-09T02:45:20.695Z,8.29
2023-04-09T02:45:52.278Z,8.33
2023-04-09T02:46:24.353Z,8.35
2023-04-09T02:46:56.130Z,8.39
2023-04-09T02:47:27.787Z,8.36
2023-04-09T02:47:59.315Z,8.38
2023-04-09T02:48:31.234Z,8.40
2023-04-09T02:49:02.834Z,8.38
2023-04-09T02:49:34.374Z,8.34
2023-04-09T02:50:06.639Z,8.28
2023-04-09T02:50:40.242Z,8.29
2023-04-09T02:51:11.819Z,8.35
2023-04-09T02:51:43.356Z,8.36
2023-04-09T02:52:14.954Z,8.34
2023-04-09T02:52:47.528Z,8.33
2023-04-09T02:53:19.003Z,8.34
2023-04-09T02:53:50.631Z,8.34
2023-04-09T02:54:22.417Z,8.34
2023-04-09T02:54:54.000Z,8.29
2023-04-09T02:55:25.601Z,8.32
2023-04-09T02:55:57.172Z,8.32
2023-04-09T02:56:28.773Z,8.20
2023-04-09T02:57:01.051Z,8.15
2023-04-09T02:57:33.767Z,8.15
2023-04-09T02:58:05.428Z,8.08
2023-04-09T02:58:37.026Z,8.11
2023-04-09T02:59:08.715Z,8.11
2023-04-09T02:59:40.740Z,7.98
2023-04-09T03:00:13.261Z,8.02
2023-04-09T03:00:44.808Z,7.99
2023-04-09T03:01:16.519Z,8.00
2023-04-09T03:01:48.129Z,8.00
2023-04-09T03:02:19.984Z,7.94
2023-04-09T03:02:52.523Z,7.97
2023-04-09T03:03:24.347Z,7.93
2023-04-09T03:03:56.284Z,7.94
2023-04-09T03:04:27.931Z,7.95
2023-04-09T03:05:02.899Z,7.93
2023-04-09T03:05:36.295Z,7.91
2023-04-09T03:06:07.836Z,7.94
2023-04-09T03:06:39.398Z,7.90
2023-04-09T03:07:10.878Z,7.90
2023-04-09T03:07:42.465Z,7.85
2023-04-09T03:08:14.170Z,7.87
2023-04-09T03:08:45.813Z,7.91
2023-04-09T03:09:17.316Z,7.92
2023-04-09T03:09:48.882Z,7.88
2023-04-09T03:10:21.519Z,7.85
2023-04-09T03:10:53.078Z,7.97
2023-04-09T03:11:24.646Z,7.96
2023-04-09T03:11:57.350Z,7.85
2023-04-09T03:12:28.845Z,7.80
2023-04-09T03:13:00.562Z,7.79
2023-04-09T03:13:33.223Z,7.80
2023-04-09T03:14:04.735Z,7.82
2023-04-09T03:14:36.255Z,7.85
2023-04-09T03:15:08.051Z,7.82
2023-04-09T03:15:39.735Z,7.91
2023-04-09T03:16:11.423Z,7.96
2023-04-09T03:16:42.995Z,7.89
2023-04-09T03:17:14.692Z,7.90
2023-04-09T03:17:46.320Z,7.91
2023-04-09T03:18:17.882Z,7.90
2023-04-09T03:18:49.600Z,7.89
2023-04-09T03:19:21.458Z,7.95
2023-04-09T03:19:53.522Z,8.04
2023-04-09T03:20:25.830Z,8.10
2023-04-09T03:20:57.477Z,8.00
2023-04-09T03:21:29.753Z,7.97
2023-04-09T03:22:01.341Z,7.96
2023-04-09T03:22:38.904Z,7.90
2023-04-09T03:23:20.429Z,7.87
2023-04-09T03:23:52.965Z,7.89
2023-04-09T03:24:24.534Z,7.87
2023-04-09T03:24:56.536Z,7.80
2023-04-09T03:25:28.577Z,7.75
2023-04-09T03:26:06.662Z,7.75
2023-04-09T03:26:51.633Z,7.75
2023-04-09T03:27:23.450Z,7.75
2023-04-09T03:27:58.444Z,7.75
2023-04-09T03:28:41.633Z,7.70
2023-04-09T03:29:13.201Z,7.70
2023-04-09T03:29:44.726Z,7.71
2023-04-09T03:30:17.502Z,7.78
2023-04-09T03:30:50.268Z,7.72
2023-04-09T03:31:21.992Z,7.71
2023-04-09T03:31:53.661Z,7.75
2023-04-09T03:32:25.341Z,7.75
2023-04-09T03:32:58.047Z,7.86
2023-04-09T03:33:30.115Z,7.81
2023-04-09T03:34:03.639Z,7.74
2023-04-09T03:34:37.200Z,7.77
2023-04-09T03:35:09.546Z,7.76
2023-04-09T03:35:43.306Z,7.71
2023-04-09T03:36:15.941Z,7.87
2023-04-09T03:37:00.493Z,7.79
2023-04-09T03:37:35.598Z,7.80
2023-04-09T03:38:07.444Z,7.73
2023-04-09T03:38:38.970Z,7.74
2023-04-09T03:39:16.162Z,7.85
2023-04-09T03:39:48.890Z,7.82
2023-04-09T03:40:20.701Z,7.81
2023-04-09T03:40:52.277Z,7.80
2023-04-09T03:41:23.800Z,7.87
2023-04-09T03:41:57.874Z,7.83
2023-04-09T03:42:31.878Z,7.75
2023-04-09T03:43:04.339Z,7.75
2023-04-09T03:43:39.513Z,7.86
2023-04-09T03:44:12.044Z,7.81
2023-04-09T03:44:59.903Z,8.08
2023-04-09T03:45:38.485Z,7.99
2023-04-09T03:46:36.324Z,7.81
2023-04-09T03:47:08.638Z,7.84
2023-04-09T03:47:42.413Z,7.80
2023-04-09T03:48:14.363Z,7.81
2023-04-09T03:48:46.150Z,7.87
2023-04-09T03:49:18.227Z,7.84
2023-04-09T03:49:50.274Z,7.82
2023-04-09T03:50:28.869Z,8.06
2023-04-09T03:51:01.406Z,7.95
2023-04-09T03:51:40.722Z,7.90
2023-04-09T03:52:12.596Z,7.84
2023-04-09T03:52:48.328Z,7.88
2023-04-09T03:53:19.851Z,7.98
2023-04-09T03:53:51.864Z,7.88
2023-04-09T03:54:23.845Z,7.82
2023-04-09T03:54:56.485Z,7.77
2023-04-09T03:55:30.499Z,7.81
2023-04-09T03:56:03.045Z,7.71
2023-04-09T03:56:35.264Z,7.76
2023-04-09T03:57:09.434Z,7.70
2023-04-09T03:57:43.985Z,7.78
2023-04-09T03:58:19.972Z,8.04
2023-04-09T03:58:52.320Z,8.07
2023-04-09T03:59:27.925Z,7.98
2023-04-09T04:00:02.067Z,7.87
2023-04-09T04:00:43.606Z,7.86
2023-04-09T04:01:33.305Z,7.85
2023-04-09T04:02:06.078Z,7.79
2023-04-09T04:02:41.045Z,7.73
2023-04-09T04:03:14.790Z,7.73
2023-04-09T04:04:12.613Z,7.83
2023-04-09T04:04:52.744Z,7.95
2023-04-09T04:05:26.301Z,7.81
2023-04-09T04:06:03.592Z,7.78
2023-04-09T04:06:44.684Z,7.79
2023-04-09T04:07:37.922Z,7.77
2023-04-09T04:08:14.810Z,7.71
2023-04-09T04:08:46.570Z,7.63
2023-04-09T04:09:18.527Z,7.62
2023-04-09T04:10:13.003Z,7.62
2023-04-09T04:10:49.051Z,7.65
2023-04-09T04:11:22.518Z,7.78
2023-04-09T04:11:58.945Z,7.64
2023-04-09T04:12:43.475Z,7.65
2023-04-09T04:13:35.331Z,7.78
2023-04-09T04:14:10.933Z,7.78
2023-04-09T04:14:44.003Z,7.70
2023-04-09T04:15:25.966Z,7.88
2023-04-09T04:16:00.582Z,7.88
2023-04-09T04:16:32.912Z,7.73
2023-04-09T04:17:05.892Z,7.64
2023-04-09T04:17:37.597Z,7.53
2023-04-09T04:18:15.712Z,7.54
2023-04-09T04:18:54.154Z,7.52
2023-04-09T04:19:26.270Z,7.55
2023-04-09T04:19:57.822Z,7.51
2023-04-09T04:20:29.412Z,7.47
2023-04-09T04:21:14.906Z,7.47
2023-04-09T04:21:49.848Z,7.45
2023-04-09T04:22:21.530Z,7.51
2023-04-09T04:22:57.128Z,7.46
2023-04-09T04:23:30.697Z,7.40
2023-04-09T04:24:09.349Z,7.61
2023-04-09T04:24:40.896Z,7.71
2023-04-09T04:25:13.087Z,7.75
2023-04-09T04:25:44.829Z,7.64
2023-04-09T04:26:19.755Z,7.53
2023-04-09T04:26:51.682Z,7.51
2023-04-09T04:27:25.226Z,7.53
2023-04-09T04:27:57.853Z,7.50
2023-04-09T04:28:39.349Z,7.43
2023-04-09T04:29:12.495Z,7.63
2023-04-09T04:30:10.258Z,7.60
2023-04-09T04:30:51.490Z,7.61
2023-04-09T04:31:23.690Z,7.77
2023-04-09T04:31:55.726Z,7.65
2023-04-09T04:32:30.449Z,7.56
2023-04-09T04:33:07.857Z,7.58
2023-04-09T04:33:50.879Z,7.62
2023-04-09T04:34:23.205Z,7.63
2023-04-09T04:35:02.682Z,7.63
2023-04-09T04:35:34.280Z,7.47
2023-04-09T04:36:13.539Z,7.55
2023-04-09T04:36:52.214Z,7.47
2023-04-09T04:37:24.267Z,7.32
2023-04-09T04:38:00.148Z,7.23
2023-04-09T04:38:32.941Z,7.27
2023-04-09T04:39:07.136Z,7.31
2023-04-09T04:39:51.027Z,7.52
2023-04-09T04:40:22.576Z,7.57
2023-04-09T04:41:01.521Z,7.57
2023-04-09T04:41:33.202Z,7.44
2023-04-09T04:42:19.016Z,7.35
2023-04-09T04:42:51.829Z,7.30
2023-04-09T04:43:23.758Z,7.21
2023-04-09T04:43:58.620Z,7.11
2023-04-09T04:44:30.723Z,7.28
2023-04-09T04:45:18.359Z,7.23
2023-04-09T04:45:56.277Z,6.99
2023-04-09T04:46:30.294Z,6.91
2023-04-09T04:47:01.927Z,7.00
2023-04-09T04:47:33.538Z,6.95
2023-04-09T04:48:05.345Z,6.78
2023-04-09T04:48:36.938Z,6.89
2023-04-09T04:49:08.545Z,6.75
2023-04-09T04:49:47.495Z,6.65
2023-04-09T04:50:19.272Z,6.68
2023-04-09T04:51:00.813Z,6.67
2023-04-09T04:51:38.964Z,6.68
2023-04-09T04:52:15.533Z,6.64
2023-04-09T04:52:51.707Z,6.62
2023-04-09T04:53:25.163Z,6.58
2023-04-09T04:53:57.669Z,6.53
2023-04-09T04:54:29.698Z,6.49
2023-04-09T04:55:03.175Z,6.48
2023-04-09T04:55:39.521Z,6.47
2023-04-09T04:56:16.074Z,6.38
2023-04-09T04:57:19.655Z,6.39
2023-04-09T04:57:52.608Z,6.44
2023-04-09T04:58:27.096Z,6.33
2023-04-09T04:59:02.505Z,6.29
2023-04-09T04:59:40.833Z,6.27
2023-04-09T05:00:14.818Z,6.28
2023-04-09T05:00:46.675Z,6.41
2023-04-09T05:01:18.911Z,6.37
2023-04-09T05:01:50.930Z,6.27
2023-04-09T05:02:22.759Z,6.18
2023-04-09T05:03:06.749Z,6.25
2023-04-09T05:04:04.822Z,6.27
2023-04-09T05:04:38.506Z,6.24
2023-04-09T05:05:11.932Z,6.27
2023-04-09T05:05:49.610Z,6.19
2023-04-09T05:06:21.572Z,6.31
2023-04-09T05:06:53.205Z,6.25
2023-04-09T05:07:27.473Z,6.18
2023-04-09T05:08:01.513Z,6.16
2023-04-09T05:08:33.044Z,6.11
2023-04-09T05:09:05.510Z,6.06
2023-04-09T05:09:45.421Z,6.05
2023-04-09T05:10:17.131Z,5.99
2023-04-09T05:10:51.217Z,6.06
2023-04-09T05:11:27.939Z,6.08
2023-04-09T05:12:01.339Z,6.06
2023-04-09T05:12:32.957Z,6.18
2023-04-09T05:13:05.758Z,6.09
2023-04-09T05:13:41.435Z,6.06
2023-04-09T05:14:15.095Z,6.19
2023-04-09T05:14:47.498Z,6.20
2023-04-09T05:15:19.071Z,6.13
2023-04-09T05:15:50.842Z,6.06
2023-04-09T05:16:22.511Z,5.96
2023-04-09T05:17:00.904Z,5.99
2023-04-09T05:17:45.331Z,6.05
2023-04-09T05:18:18.759Z,6.13
2023-04-09T05:18:50.827Z,6.09
2023-04-09T05:19:22.692Z,6.08
2023-04-09T05:20:00.047Z,6.20
2023-04-09T05:20:39.550Z,6.18
2023-04-09T05:21:13.208Z,6.16
2023-04-09T05:21:47.610Z,6.02
2023-04-09T05:22:25.249Z,5.99
2023-04-09T05:22:57.091Z,6.06
2023-04-09T05:23:34.683Z,6.07
2023-04-09T05:24:06.757Z,6.12
2023-04-09T05:24:39.435Z,6.11
2023-04-09T05:25:11.129Z,6.15
2023-04-09T05:25:45.338Z,6.08
2023-04-09T05:26:27.743Z,6.02
2023-04-09T05:27:02.640Z,6.09
2023-04-09T05:27:34.684Z,6.05
2023-04-09T05:28:06.962Z,5.99
2023-04-09T05:28:40.215Z,5.97
2023-04-09T05:29:20.068Z,5.85
2023-04-09T05:29:51.680Z,5.85
2023-04-09T05:30:23.386Z,5.89
2023-04-09T05:30:55.811Z,5.91
2023-04-09T05:31:28.153Z,5.97
2023-04-09T05:32:16.905Z,5.99
2023-04-09T05:32:49.139Z,6.09
2023-04-09T05:33:21.601Z,6.12
2023-04-09T05:33:53.205Z,6.16
2023-04-09T05:34:30.249Z,6.13
2023-04-09T05:35:02.119Z,6.14
2023-04-09T05:35:38.927Z,6.34
2023-04-09T05:36:18.805Z,6.32
2023-04-09T05:36:50.387Z,6.34
2023-04-09T05:37:26.749Z,6.46
2023-04-09T05:37:58.709Z,6.18
2023-04-09T05:38:30.703Z,6.28
2023-04-09T05:39:03.741Z,6.25
2023-04-09T05:39:35.777Z,6.31
2023-04-09T05:40:08.055Z,6.37
2023-04-09T05:40:40.288Z,6.37
2023-04-09T05:41:16.660Z,6.37
2023-04-09T05:41:59.089Z,6.45
2023-04-09T05:42:38.004Z,6.41
2023-04-09T05:43:18.021Z,6.30
2023-04-09T05:43:49.853Z,6.29
2023-04-09T05:44:22.094Z,6.38
2023-04-09T05:44:56.107Z,6.50
2023-04-09T05:45:28.757Z,6.49
2023-04-09T05:46:00.820Z,6.45
2023-04-09T05:46:32.549Z,6.36
2023-04-09T05:47:05.437Z,6.27
2023-04-09T05:47:44.534Z,6.48
2023-04-09T05:48:21.937Z,6.47
2023-04-09T05:48:53.855Z,6.45
2023-04-09T05:49:26.442Z,6.57
2023-04-09T05:50:00.281Z,6.57
2023-04-09T05:50:38.170Z,6.58
2023-04-09T05:51:19.370Z,6.65
2023-04-09T05:51:51.766Z,6.55
2023-04-09T05:52:29.080Z,6.80
2023-04-09T05:53:01.022Z,6.74
2023-04-09T05:53:41.255Z,6.89
2023-04-09T05:54:12.780Z,6.87
2023-04-09T05:54:44.426Z,6.89
2023-04-09T05:55:18.419Z,6.88
2023-04-09T05:55:54.987Z,7.12
2023-04-09T05:56:29.977Z,7.13
2023-04-09T05:57:01.970Z,7.05
2023-04-09T05:57:35.418Z,7.09
2023-04-09T05:58:09.408Z,7.32
2023-04-09T05:58:41.198Z,7.37
2023-04-09T05:59:12.812Z,7.49
2023-04-09T05:59:44.431Z,7.41
2023-04-09T06:00:16.658Z,7.78
2023-04-09T06:00:48.144Z,7.66
2023-04-09T06:01:19.790Z,8.05
2023-04-09T06:01:51.372Z,7.93
2023-04-09T06:02:23.520Z,7.49
2023-04-09T06:02:55.485Z,7.52
2023-04-09T06:03:27.192Z,7.58
2023-04-09T06:03:59.095Z,7.56
2023-04-09T06:04:33.658Z,7.74
2023-04-09T06:05:05.784Z,7.78
2023-04-09T06:05:37.426Z,7.63
2023-04-09T06:06:08.983Z,7.73
2023-04-09T06:06:40.628Z,7.71
2023-04-09T06:07:12.353Z,7.62
2023-04-09T06:07:43.887Z,7.63
2023-04-09T06:08:15.726Z,7.76
2023-04-09T06:08:47.401Z,7.63
2023-04-09T06:09:18.954Z,7.62
2023-04-09T06:09:50.710Z,7.54
2023-04-09T06:10:22.365Z,7.63
2023-04-09T06:10:54.236Z,7.79
2023-04-09T06:11:26.968Z,7.79
2023-04-09T06:11:58.491Z,7.89
2023-04-09T06:12:30.549Z,8.18
2023-04-09T06:13:02.201Z,8.08
2023-04-09T06:13:34.644Z,8.04
2023-04-09T06:14:07.265Z,7.98
2023-04-09T06:14:39.174Z,8.03
2023-04-09T06:15:11.224Z,8.48
2023-04-09T06:15:42.772Z,9.02
2023-04-09T06:16:14.357Z,9.48
2023-04-09T06:16:46.057Z,9.26
2023-04-09T06:17:18.153Z,9.27
2023-04-09T06:17:49.752Z,9.79
2023-04-09T06:18:21.458Z,10.18
2023-04-09T06:18:54.649Z,10.24
2023-04-09T06:19:26.251Z,10.30
2023-04-09T06:19:57.779Z,10.23
2023-04-09T06:20:29.291Z,10.24
2023-04-09T06:21:07.557Z,10.39
2023-04-09T06:21:40.720Z,10.35
2023-04-09T06:22:12.291Z,10.38
2023-04-09T06:22:43.827Z,10.40
2023-04-09T06:23:15.677Z,10.52
2023-04-09T06:23:47.173Z,10.60
2023-04-09T06:24:18.816Z,10.53
2023-04-09T06:24:50.421Z,10.54
2023-04-09T06:25:22.272Z,10.53
2023-04-09T06:25:53.805Z,10.47
2023-04-09T06:26:25.617Z,10.23
2023-04-09T06:26:57.215Z,10.39
2023-04-09T06:27:28.712Z,10.11
2023-04-09T06:28:00.240Z,10.40
2023-04-09T06:28:32.306Z,10.97
2023-04-09T06:29:04.700Z,10.91
2023-04-09T06:29:36.284Z,10.92
2023-04-09T06:30:08.601Z,11.05
2023-04-09T06:30:40.134Z,10.27
2023-04-09T06:31:12.340Z,10.65
2023-04-09T06:31:43.994Z,10.89
2023-04-09T06:32:15.706Z,10.94
2023-04-09T06:32:54.206Z,10.96
2023-04-09T06:33:26.835Z,11.16
2023-04-09T06:33:58.535Z,11.14
2023-04-09T06:34:30.291Z,11.17
2023-04-09T06:35:01.906Z,10.76
2023-04-09T06:35:33.498Z,10.93
2023-04-09T06:36:05.366Z,10.93
2023-04-09T06:36:37.760Z,11.10
2023-04-09T06:37:09.291Z,11.34
2023-04-09T06:37:41.131Z,11.38
2023-04-09T06:38:12.677Z,11.43
2023-04-09T06:38:44.202Z,11.51
2023-04-09T06:39:15.759Z,11.41
2023-04-09T06:39:58.195Z,11.33
2023-04-09T06:40:32.781Z,11.39
2023-04-09T06:41:06.806Z,10.92
2023-04-09T06:41:38.417Z,11.27
2023-04-09T06:42:18.114Z,11.71
2023-04-09T06:43:02.233Z,11.95
2023-04-09T06:43:41.143Z,12.10
2023-04-09T06:44:13.589Z,11.89
2023-04-09T06:44:45.393Z,11.74
2023-04-09T06:45:16.974Z,11.59
2023-04-09T06:45:48.567Z,11.74
2023-04-09T06:46:21.321Z,11.58
2023-04-09T06:46:53.183Z,11.51
2023-04-09T06:47:24.880Z,11.76
2023-04-09T06:47:56.493Z,11.56
2023-04-09T06:48:28.044Z,11.14
2023-04-09T06:48:59.701Z,11.45
2023-04-09T06:49:31.340Z,11.56
2023-04-09T06:50:03.267Z,11.29
2023-04-09T06:50:34.813Z,11.19
2023-04-09T06:51:07.598Z,11.19
2023-04-09T06:51:39.224Z,10.89
2023-04-09T06:52:11.003Z,11.23
2023-04-09T06:52:42.808Z,11.55
2023-04-09T06:53:15.303Z,11.54
2023-04-09T06:53:48.388Z,11.49
2023-04-09T06:54:22.631Z,11.53
2023-04-09T06:54:54.154Z,11.43
2023-04-09T06:55:27.179Z,11.34
2023-04-09T06:55:58.716Z,11.73
2023-04-09T06:56:33.810Z,12.22
2023-04-09T06:57:06.700Z,12.17
2023-04-09T06:57:39.368Z,12.27
2023-04-09T06:58:11.149Z,11.88
2023-04-09T06:58:42.719Z,11.78
2023-04-09T06:59:14.221Z,12.21
2023-04-09T06:59:45.983Z,12.41
2023-04-09T07:00:17.585Z,12.61
2023-04-09T07:00:49.131Z,12.84
2023-04-09T07:01:21.217Z,12.57
2023-04-09T07:01:54.550Z,12.57
2023-04-09T07:02:26.654Z,12.91
2023-04-09T07:02:58.533Z,13.38
2023-04-09T07:03:30.688Z,13.42
2023-04-09T07:04:02.586Z,13.32
2023-04-09T07:04:34.295Z,13.14
2023-04-09T07:05:06.415Z,13.43
2023-04-09T07:05:38.048Z,13.88
2023-04-09T07:06:09.580Z,13.52
2023-04-09T07:06:41.522Z,14.10
2023-04-09T07:07:13.128Z,13.78
2023-04-09T07:07:44.675Z,13.58
2023-04-09T07:08:16.194Z,14.05
2023-04-09T07:08:47.741Z,13.74
2023-04-09T07:09:19.408Z,13.64
2023-04-09T07:09:51.305Z,13.52
2023-04-09T07:10:23.073Z,13.44
2023-04-09T07:10:54.614Z,13.42
2023-04-09T07:11:26.517Z,13.15
2023-04-09T07:11:58.045Z,13.58
2023-04-09T07:12:35.514Z,14.18
2023-04-09T07:13:07.525Z,14.04
2023-04-09T07:13:39.087Z,13.74
2023-04-09T07:14:10.644Z,14.31
2023-04-09T07:14:42.166Z,14.58
2023-04-09T07:15:13.727Z,14.44
2023-04-09T07:15:46.180Z,14.49
2023-04-09T07:16:17.735Z,14.84
2023-04-09T07:16:49.295Z,14.94
2023-04-09T07:17:20.817Z,14.90
2023-04-09T07:17:52.394Z,14.78
2023-04-09T07:18:24.024Z,14.60
2023-04-09T07:18:55.706Z,14.73
2023-04-09T07:19:27.231Z,14.65
2023-04-09T07:19:58.786Z,14.08
2023-04-09T07:20:30.756Z,14.53
2023-04-09T07:21:03.341Z,15.02
2023-04-09T07:21:34.948Z,15.09
2023-04-09T07:22:06.551Z,14.98
2023-04-09T07:22:38.074Z,15.21
2023-04-09T07:23:09.625Z,15.13
2023-04-09T07:23:41.471Z,15.18
2023-04-09T07:24:13.038Z,15.15
2023-04-09T07:24:44.537Z,15.18
2023-04-09T07:25:16.343Z,14.62
2023-04-09T07:25:48.326Z,14.44
2023-04-09T07:26:19.912Z,14.32
2023-04-09T07:26:52.558Z,15.26
2023-04-09T07:27:26.326Z,15.93
2023-04-09T07:27:57.989Z,15.72
2023-04-09T07:28:29.523Z,15.96
2023-04-09T07:29:01.128Z,15.77
2023-04-09T07:29:32.634Z,15.47
2023-04-09T07:30:04.481Z,15.75